Corona Range LRC

2021-04-18 20:25:00

  • imperial
Date Time Air Temperature Relative Humidity Dewpoint Windchill Heat Index Wind Speed Wind Dir. Rain Solar Radiation Soil Temperature
2m 2m 3m 3m 10cm
US/Mountain F % F F F MPH deg in MJ/m^2 F
max avg avg
2021-04-17 20:35:00 38.1 47.8 20.0 34.4 38.1 4.7 10.1 7.7 20.3 61.6 0.00 0.0000000 58.2
2021-04-17 20:40:00 38.2 47.9 20.1 36.1 38.2 3.1 8.5 5.7 92.8 55.9 0.00 0.0000000 58.1
2021-04-17 20:45:00 38.1 47.8 20.0 32.5 38.1 7.6 8.7 6.3 0.0 53.8 0.00 0.0000000 58.0
2021-04-17 20:50:00 38.2 47.8 20.1 33.2 38.2 6.5 8.1 5.7 67.2 52.4 0.00 0.0000000 58.0
2021-04-17 20:55:00 38.1 47.8 20.0 33.2 38.1 6.3 9.0 6.8 64.7 50.1 0.00 0.0000000 57.9
2021-04-17 21:00:00 38.2 47.8 20.1 33.6 38.2 6.0 8.7 6.6 82.9 48.2 0.00 0.0000000 57.8
2021-04-17 21:05:00 38.2 47.8 20.1 33.8 38.2 5.6 8.5 6.0 2.4 56.5 0.00 0.0000000 57.7
2021-04-17 21:10:00 38.2 47.8 20.1 34.2 38.2 5.1 7.8 6.1 78.2 71.0 0.00 0.0000000 57.6
2021-04-17 21:15:00 37.8 59.0 24.7 29.6 37.8 13.0 17.1 7.6 119.7 83.8 0.00 0.0000000 57.5
2021-04-17 21:20:00 36.1 64.0 25.1 30.5 36.1 6.9 14.7 9.9 73.1 74.3 0.00 0.0000000 57.5
2021-04-17 21:25:00 35.5 69.9 26.6 27.9 35.5 10.3 13.9 10.6 33.2 67.7 0.00 0.0000000 57.4
2021-04-17 21:30:00 34.7 74.2 27.4 29.8 34.7 5.6 15.8 8.6 126.6 103.6 0.00 0.0000000 57.3
2021-04-17 21:35:00 34.7 74.0 27.3 27.1 34.7 10.1 10.8 7.9 137.9 102.1 0.00 0.0000000 57.2
2021-04-17 21:40:00 33.9 80.5 28.5 26.7 33.9 8.7 13.1 9.2 92.3 103.0 0.00 0.0000000 57.2
2021-04-17 21:45:00 33.0 86.5 29.4 27.9 33.0 5.5 10.8 8.0 54.6 108.8 0.00 0.0000000 57.1
2021-04-17 21:50:00 32.5 90.3 30.0 24.9 32.5 9.0 9.9 7.3 25.3 105.3 0.00 0.0000000 57.0
2021-04-17 21:55:00 32.0 93.4 30.4 26.1 32.0 6.2 10.8 7.3 49.6 106.1 0.00 0.0000000 56.9
2021-04-17 22:00:00 31.7 94.9 30.5 25.5 31.7 6.5 9.7 6.5 129.2 98.7 0.00 0.0000000 56.8
2021-04-17 22:05:00 31.6 95.8 30.6 25.3 31.6 6.5 7.8 6.2 101.6 99.8 0.00 0.0000000 56.8
2021-04-17 22:10:00 31.6 96.4 30.7 27.1 31.6 4.4 9.2 6.4 111.2 94.8 0.00 0.0000000 56.7
2021-04-17 22:15:00 31.5 96.8 30.7 25.6 31.5 6.0 8.1 5.6 65.0 95.9 0.00 0.0000000 56.6
2021-04-17 22:20:00 31.5 97.1 30.8 26.5 31.5 4.9 6.3 4.8 24.7 91.9 0.00 0.0000000 56.5
2021-04-17 22:25:00 31.5 97.4 30.8 26.1 31.5 5.5 6.9 5.2 45.0 85.0 0.00 0.0000000 56.4
2021-04-17 22:30:00 31.5 97.6 30.9 27.3 31.5 4.2 9.2 5.4 120.4 104.6 0.00 0.0000000 56.3
2021-04-17 22:35:00 31.6 97.7 31.0 24.5 31.6 7.6 7.8 5.7 126.5 100.8 0.00 0.0000000 56.2
2021-04-17 22:40:00 31.5 97.8 31.0 25.2 31.5 6.5 7.8 6.2 127.1 89.4 0.00 0.0000000 56.2
2021-04-17 22:45:00 31.5 97.9 31.0 25.2 31.5 6.5 9.0 6.4 122.0 92.9 0.00 0.0000000 56.1
2021-04-17 22:50:00 31.4 98.0 31.0 25.4 31.4 6.2 9.2 5.6 93.9 79.4 0.00 0.0000000 56.0
2021-04-17 22:55:00 31.5 98.2 31.1 27.9 31.5 3.7 7.4 5.0 43.9 90.2 0.00 0.0000000 55.9
2021-04-17 23:00:00 31.4 98.2 31.0 25.1 31.4 6.5 7.1 5.1 92.3 65.8 0.00 0.0000000 55.8
2021-04-17 23:05:00 31.3 98.3 30.9 22.3 31.3 11.2 11.2 6.7 56.7 72.9 0.00 0.0000000 55.7
2021-04-17 23:10:00 31.2 98.4 30.8 24.7 31.2 6.7 10.1 6.5 44.8 68.6 0.00 0.0000000 55.6
2021-04-17 23:15:00 31.2 98.5 30.8 26.3 31.2 4.7 6.7 5.6 42.1 55.7 0.00 0.0000000 55.6
2021-04-17 23:20:00 31.3 98.5 30.9 26.8 31.3 4.4 7.1 5.5 68.2 51.0 0.00 0.0000000 55.5
2021-04-17 23:25:00 31.2 98.5 30.8 24.0 31.2 7.8 9.7 7.2 3.8 48.3 0.00 0.0000000 55.4
2021-04-17 23:30:00 31.1 98.6 30.8 25.3 31.1 5.8 8.1 6.3 15.8 56.7 0.00 0.0000000 55.3
2021-04-17 23:35:00 31.1 98.7 30.8 23.4 31.1 8.7 9.6 6.8 97.7 49.3 0.00 0.0000000 55.2
2021-04-17 23:40:00 31.0 98.7 30.6 23.3 31.0 8.5 12.2 7.4 31.1 31.5 0.00 0.0000000 55.1
2021-04-17 23:45:00 30.8 98.8 30.5 24.1 30.8 6.9 10.5 8.1 44.8 37.5 0.00 0.0000000 55.0
2021-04-17 23:50:00 30.7 99.0 30.5 22.3 30.7 9.6 11.0 8.0 74.1 46.2 0.00 0.0000000 54.9
2021-04-17 23:55:00 30.7 99.2 30.5 22.9 30.7 8.5 10.1 8.4 72.5 41.0 0.00 0.0000000 54.8
2021-04-18 00:00:00 30.5 99.3 30.4 23.9 30.5 6.7 8.3 6.8 18.1 49.4 0.00 0.0000000 54.7
2021-04-18 00:05:00 30.5 99.4 30.4 24.6 30.5 5.8 9.2 5.8 7.6 46.9 0.00 0.0000000 54.6
2021-04-18 00:10:00 30.5 99.5 30.3 22.5 30.5 8.7 10.3 7.9 17.3 39.7 0.00 0.0000000 54.5
2021-04-18 00:15:00 30.4 99.6 30.3 23.3 30.4 7.4 10.1 8.4 53.9 34.2 0.00 0.0000000 54.5
2021-04-18 00:20:00 30.4 99.7 30.3 22.8 30.4 8.0 9.7 7.6 51.8 35.9 0.00 0.0000000 54.4
2021-04-18 00:25:00 30.2 99.8 30.1 23.0 30.2 7.4 9.0 7.4 61.5 41.8 0.00 0.0000000 54.3
2021-04-18 00:30:00 30.2 99.8 30.2 25.8 30.2 4.2 8.7 6.9 54.4 42.8 0.00 0.0000000 54.2
2021-04-18 00:35:00 30.4 99.8 30.3 24.7 30.4 5.5 7.6 5.8 73.0 43.2 0.00 0.0000000 54.1
2021-04-18 00:40:00 30.5 99.9 30.5 23.5 30.5 7.2 8.5 6.4 15.7 34.5 0.00 0.0000000 54.1
2021-04-18 00:45:00 30.4 100.0 30.4 23.3 30.4 7.4 9.4 7.2 55.8 32.4 0.00 0.0000000 54.0
2021-04-18 00:50:00 30.5 100.0 30.5 23.2 30.5 7.8 9.6 7.8 67.5 36.2 0.00 0.0000000 53.9
2021-04-18 00:55:00 30.6 100.0 30.6 23.5 30.6 7.4 9.0 7.3 6.7 29.1 0.00 0.0000000 53.8
2021-04-18 01:00:00 30.6 100.0 30.6 23.9 30.6 6.9 8.5 6.9 7.1 27.9 0.00 0.0000000 53.8
2021-04-18 01:05:00 30.5 100.0 30.5 24.0 30.5 6.5 8.8 7.3 6.9 41.2 0.00 0.0000000 53.7
2021-04-18 01:10:00 30.6 100.0 30.6 26.2 30.6 4.2 8.7 6.4 33.5 35.2 0.00 0.0000000 53.6
2021-04-18 01:15:00 30.4 100.0 30.4 24.5 30.4 5.8 7.2 5.8 7.7 41.1 0.00 0.0000000 53.5
2021-04-18 01:20:00 30.4 100.0 30.3 23.4 30.4 7.1 9.2 6.7 11.7 28.2 0.00 0.0000000 53.5
2021-04-18 01:25:00 30.4 100.0 30.3 24.7 30.4 5.5 8.0 6.3 78.1 24.7 0.00 0.0000000 53.4
2021-04-18 01:30:00 30.4 100.0 30.3 25.2 30.4 4.9 7.6 5.7 8.2 30.3 0.00 0.0000000 53.3
2021-04-18 01:35:00 30.6 100.0 30.6 22.4 30.6 9.2 9.2 6.4 50.8 25.1 0.00 0.0000000 53.2
2021-04-18 01:40:00 30.4 100.0 30.4 23.8 30.4 6.7 9.4 7.5 16.8 44.0 0.00 0.0000000 53.2
2021-04-18 01:45:00 30.5 100.0 30.5 24.8 30.5 5.6 8.1 6.8 54.1 25.5 0.00 0.0000000 53.1
2021-04-18 01:50:00 30.5 100.0 30.5 23.3 30.5 7.4 9.2 7.3 8.1 34.3 0.00 0.0000000 53.1
2021-04-18 01:55:00 30.6 100.0 30.6 23.5 30.6 7.4 9.2 7.1 53.5 41.1 0.00 0.0000000 53.0
2021-04-18 02:00:00 30.7 100.0 30.7 23.6 30.7 7.4 9.6 7.8 49.5 35.1 0.00 0.0000000 52.9
2021-04-18 02:05:00 30.4 100.0 30.3 22.2 30.4 9.0 10.6 8.8 43.5 26.3 0.00 0.0000000 52.9
2021-04-18 02:10:00 30.4 100.0 30.3 23.7 30.4 6.7 9.9 7.9 68.5 32.5 0.00 0.0000000 52.8
2021-04-18 02:15:00 30.5 100.0 30.5 22.7 30.5 8.5 9.2 7.3 51.9 34.4 0.00 0.0000000 52.7
2021-04-18 02:20:00 30.4 100.0 30.3 22.7 30.4 8.1 10.1 8.3 61.6 39.4 0.00 0.0000000 52.7
2021-04-18 02:25:00 30.4 100.0 30.3 23.1 30.4 7.6 8.8 7.3 15.9 42.5 0.00 0.0000000 52.6
2021-04-18 02:30:00 30.4 100.0 30.4 23.5 30.4 7.1 8.7 7.3 82.3 48.8 0.00 0.0000000 52.6
2021-04-18 02:35:00 30.4 100.0 30.3 25.0 30.4 5.1 8.8 6.1 62.4 46.3 0.00 0.0000000 52.5
2021-04-18 02:40:00 30.4 100.0 30.3 23.6 30.4 6.9 6.9 5.1 57.8 35.8 0.00 0.0000000 52.4
2021-04-18 02:45:00 30.3 100.0 30.3 21.5 30.3 10.1 10.1 7.0 44.3 32.5 0.00 0.0000000 52.4
2021-04-18 02:50:00 30.3 100.0 30.3 24.0 30.3 6.2 8.1 6.9 81.1 39.5 0.00 0.0000000 52.3
2021-04-18 02:55:00 30.4 100.0 30.3 25.0 30.4 5.1 8.3 5.7 50.7 56.5 0.00 0.0000000 52.3
2021-04-18 03:00:00 30.4 100.0 30.4 25.4 30.4 4.7 7.4 5.1 10.0 37.0 0.00 0.0000000 52.2
2021-04-18 03:05:00 30.4 100.0 30.3 25.0 30.4 5.1 7.8 6.3 10.2 26.9 0.00 0.0000000 52.2
2021-04-18 03:10:00 30.2 100.0 30.2 23.5 30.2 6.7 7.8 6.3 10.6 39.7 0.00 0.0000000 52.1
2021-04-18 03:15:00 30.2 100.0 30.2 24.7 30.2 5.3 8.5 5.8 12.4 42.8 0.00 0.0000000 52.1
2021-04-18 03:20:00 30.2 100.0 30.2 24.2 30.2 5.8 8.0 6.1 51.4 42.0 0.00 0.0000000 52.0
2021-04-18 03:25:00 30.2 100.0 30.2 25.1 30.2 4.9 6.2 5.3 10.3 54.2 0.00 0.0000000 52.0
2021-04-18 03:30:00 30.1 100.0 30.1 23.4 30.1 6.7 6.7 5.0 13.0 50.0 0.00 0.0000000 51.9
2021-04-18 03:35:00 30.0 100.0 30.0 23.8 30.0 6.0 6.5 5.6 10.7 46.6 0.00 0.0000000 51.9
2021-04-18 03:40:00 29.9 100.0 29.9 25.2 29.9 4.4 6.2 4.7 28.2 38.2 0.00 0.0000000 51.8
2021-04-18 03:45:00 29.9 100.0 29.9 25.0 29.9 4.6 6.7 4.8 63.5 37.7 0.00 0.0000000 51.8
2021-04-18 03:50:00 29.9 100.0 29.9 25.2 29.9 4.4 5.5 4.1 106.4 51.0 0.00 0.0000000 51.7
2021-04-18 03:55:00 29.8 100.0 29.8 24.5 29.8 4.9 5.5 4.3 10.3 43.2 0.00 0.0000000 51.7
2021-04-18 04:00:00 29.7 100.0 29.7 25.4 29.7 4.0 5.8 4.5 101.4 48.3 0.00 0.0000000 51.6
2021-04-18 04:05:00 29.9 100.0 29.9 26.0 29.9 3.7 4.6 3.6 55.0 47.6 0.00 0.0000000 51.6
2021-04-18 04:10:00 29.9 100.0 29.9 25.6 29.9 4.0 4.4 3.5 20.5 50.1 0.00 0.0000000 51.5
2021-04-18 04:15:00 29.9 100.0 29.9 26.7 29.9 3.1 4.4 3.2 82.5 69.2 0.00 0.0000000 51.5
2021-04-18 04:20:00 29.9 100.0 29.9 26.8 29.9 3.1 3.5 2.8 116.1 79.9 0.00 0.0000000 51.4
2021-04-18 04:25:00 29.9 100.0 29.9 26.7 29.9 3.1 4.4 3.1 107.4 78.5 0.00 0.0000000 51.4
2021-04-18 04:30:00 29.9 100.0 29.9 29.9 29.9 2.4 4.4 3.0 56.1 79.6 0.00 0.0000000 51.3
2021-04-18 04:35:00 29.9 100.0 29.9 29.9 29.9 2.6 4.0 2.5 89.0 49.9 0.00 0.0000000 51.3
2021-04-18 04:40:00 29.9 100.0 29.9 26.3 29.9 3.5 3.8 3.2 12.6 30.1 0.00 0.0000000 51.3
2021-04-18 04:45:00 30.0 100.0 30.0 30.0 30.0 1.5 3.7 2.5 82.0 47.4 0.00 0.0000000 51.2
2021-04-18 04:50:00 30.0 100.0 30.0 30.0 30.0 2.4 3.3 2.2 79.8 43.3 0.00 0.0000000 51.2
2021-04-18 04:55:00 30.0 100.0 30.0 30.0 30.0 2.6 3.7 2.7 104.7 80.5 0.00 0.0000000 51.1
2021-04-18 05:00:00 30.0 99.9 30.0 25.9 30.0 3.8 4.6 3.1 116.5 107.5 0.00 0.0000000 51.1
2021-04-18 05:05:00 29.9 99.9 29.8 26.2 29.9 3.5 4.6 3.5 21.3 99.5 0.00 0.0000000 51.0
2021-04-18 05:10:00 29.9 99.8 29.8 26.7 29.9 3.1 4.9 3.8 96.0 111.5 0.00 0.0000000 51.0
2021-04-18 05:15:00 29.7 99.8 29.7 26.1 29.7 3.5 4.6 3.2 64.9 104.9 0.00 0.0000000 51.0
2021-04-18 05:20:00 29.7 99.8 29.7 29.7 29.7 2.8 4.0 2.8 22.6 101.5 0.00 0.0000000 50.9
2021-04-18 05:25:00 29.7 99.8 29.7 29.7 29.7 3.0 4.2 2.9 107.4 115.1 0.00 0.0000000 50.9
2021-04-18 05:30:00 29.8 99.8 29.8 29.8 29.8 2.8 4.4 3.2 120.6 108.0 0.00 0.0000000 50.8
2021-04-18 05:35:00 29.8 99.8 29.8 29.8 29.8 1.7 3.7 2.9 74.2 87.4 0.00 0.0000000 50.8
2021-04-18 05:40:00 29.7 99.8 29.7 29.7 29.7 1.9 1.9 1.3 33.8 92.6 0.00 0.0000000 50.8
2021-04-18 05:45:00 29.9 99.8 29.8 29.9 29.9 2.6 2.8 1.7 123.9 85.0 0.00 0.0000000 50.7
2021-04-18 05:50:00 29.9 99.8 29.8 29.9 29.9 2.4 2.8 1.8 9.1 63.4 0.00 0.0000000 50.7
2021-04-18 05:55:00 30.0 99.8 29.9 30.0 30.0 1.7 3.0 1.8 9.0 54.5 0.00 0.0000000 50.6
2021-04-18 06:00:00 30.1 99.9 30.1 30.1 30.1 2.8 2.8 1.5 112.8 54.0 0.00 0.0000000 50.6
2021-04-18 06:05:00 30.2 99.9 30.1 30.2 30.2 0.0 3.1 1.7 87.8 81.2 0.00 0.0000000 50.6
2021-04-18 06:10:00 30.1 99.8 30.1 30.1 30.1 2.2 2.8 1.9 113.5 67.0 0.00 0.0000000 50.5
2021-04-18 06:15:00 30.2 99.8 30.1 30.2 30.2 3.0 3.7 2.4 64.5 47.4 0.00 0.0000000 50.5
2021-04-18 06:20:00 30.2 99.8 30.1 30.2 30.2 3.0 3.5 2.5 40.2 68.5 0.00 0.0000000 50.4
2021-04-18 06:25:00 30.1 99.8 30.1 30.1 30.1 2.4 3.3 2.7 76.9 59.5 0.00 0.0000732 50.4
2021-04-18 06:30:00 30.3 99.9 30.3 30.3 30.3 2.2 3.1 2.3 90.5 66.2 0.00 0.0011735 50.4
2021-04-18 06:35:00 30.2 99.8 30.2 30.2 30.2 3.0 3.7 2.5 111.8 99.7 0.00 0.0002928 50.3
2021-04-18 06:40:00 30.2 99.8 30.2 30.2 30.2 2.8 3.5 2.6 120.1 97.6 0.00 0.0007217 50.3
2021-04-18 06:45:00 30.2 99.8 30.2 30.2 30.2 2.1 3.5 2.7 120.7 95.2 0.00 0.0015754 50.2
2021-04-18 06:50:00 30.4 99.9 30.3 30.4 30.4 3.0 3.7 2.6 23.2 87.7 0.00 0.0022006 50.2
2021-04-18 06:55:00 30.4 99.9 30.4 30.4 30.4 2.4 4.7 3.2 108.2 94.3 0.00 0.0022987 50.2
2021-04-18 07:00:00 30.4 99.9 30.3 30.4 30.4 2.4 4.0 2.9 108.9 97.1 0.00 0.0025596 50.1
2021-04-18 07:05:00 30.6 99.9 30.6 30.6 30.6 0.0 2.4 0.7 85.6 74.8 0.00 0.0028769 50.1
2021-04-18 07:10:00 30.6 99.9 30.6 27.3 30.6 3.3 3.3 1.5 117.7 105.8 0.00 0.0043115 50.1
2021-04-18 07:15:00 30.7 99.9 30.7 30.7 30.7 2.4 3.3 2.2 66.5 79.4 0.00 0.0056612 50.0
2021-04-18 07:20:00 30.7 99.9 30.7 30.7 30.7 2.6 3.1 2.3 92.1 67.6 0.00 0.0072352 50.0
2021-04-18 07:25:00 30.8 99.9 30.8 27.8 30.8 3.1 4.9 3.2 81.7 80.6 0.00 0.0084285 50.0
2021-04-18 07:30:00 30.9 99.9 30.9 27.6 30.9 3.3 4.0 3.2 60.0 74.9 0.00 0.0089148 49.9
2021-04-18 07:35:00 31.1 99.9 31.1 31.1 31.1 2.6 3.1 2.5 54.7 66.3 0.00 0.0089488 49.9
2021-04-18 07:40:00 31.2 99.9 31.1 27.9 31.2 3.3 3.7 2.7 70.4 62.4 0.00 0.0103638 49.8
2021-04-18 07:45:00 31.2 99.8 31.2 28.0 31.2 3.3 3.3 2.5 86.7 79.9 0.00 0.0126381 49.8
2021-04-18 07:50:00 31.3 99.8 31.2 31.3 31.3 3.0 4.2 3.3 88.4 83.4 0.00 0.0171278 49.8
2021-04-18 07:55:00 31.5 99.8 31.5 27.9 31.5 3.7 4.9 3.5 120.3 108.2 0.00 0.0235441 49.8
2021-04-18 08:00:00 31.7 99.8 31.7 26.8 31.7 4.9 5.1 3.9 120.9 115.1 0.00 0.0284456 49.7
2021-04-18 08:05:00 31.8 99.7 31.7 28.4 31.8 3.5 6.0 5.0 118.8 110.1 0.00 0.0282873 49.7
2021-04-18 08:10:00 32.0 99.6 31.9 27.7 32.0 4.4 6.7 4.2 117.5 106.6 0.00 0.0304667 49.7
2021-04-18 08:15:00 32.1 99.4 32.0 27.0 32.1 5.3 6.2 4.8 103.7 86.0 0.00 0.0312755 49.7
2021-04-18 08:20:00 32.3 99.0 32.0 26.8 32.3 5.6 5.8 4.6 109.7 116.4 0.00 0.0315560 49.6
2021-04-18 08:25:00 32.5 98.4 32.1 28.4 32.5 4.2 5.8 4.5 126.9 114.2 0.00 0.0327420 49.6
2021-04-18 08:30:00 32.7 98.0 32.2 27.4 32.7 5.5 6.0 4.2 127.5 114.7 0.00 0.0380409 49.6
2021-04-18 08:35:00 32.9 96.9 32.1 28.7 32.9 4.4 6.5 5.0 120.7 104.1 0.00 0.0428652 49.6
2021-04-18 08:40:00 33.3 96.1 32.3 27.2 33.3 6.7 6.7 4.9 109.0 94.3 0.01 0.0443763 49.6
2021-04-18 08:45:00 33.4 94.5 32.0 28.0 33.4 5.8 8.3 5.6 96.4 103.6 0.01 0.0486251 49.5
2021-04-18 08:50:00 33.5 93.2 31.7 27.6 33.5 6.5 8.1 6.1 3.5 97.6 0.00 0.0455003 49.5
2021-04-18 08:55:00 33.5 91.4 31.2 29.9 33.5 3.8 10.6 7.2 124.2 103.6 0.01 0.0476492 49.5
2021-04-18 09:00:00 33.8 91.6 31.6 26.4 33.8 9.0 9.4 6.9 36.8 104.5 0.00 0.0482036 49.5
2021-04-18 09:05:00 33.8 90.7 31.4 27.3 33.8 7.6 10.1 7.2 106.1 111.2 0.00 0.0442354 49.5
2021-04-18 09:10:00 34.0 90.0 31.4 27.1 34.0 8.3 10.6 7.0 9.1 103.3 0.00 0.0417238 49.5
2021-04-18 09:15:00 33.9 89.7 31.2 29.2 33.9 5.1 10.5 8.1 133.0 119.1 0.00 0.0386144 49.5
2021-04-18 09:20:00 34.2 91.2 31.9 30.0 34.2 4.6 8.8 6.5 114.2 82.6 0.00 0.0387732 49.5
2021-04-18 09:25:00 34.3 88.2 31.2 28.2 34.3 7.1 11.2 7.0 49.3 57.4 0.00 0.0398670 49.5
2021-04-18 09:30:00 34.6 90.0 31.9 28.2 34.6 7.6 8.0 6.5 57.7 88.6 0.00 0.0461466 49.5
2021-04-18 09:35:00 34.4 85.1 30.4 27.1 34.4 9.2 9.4 8.2 131.0 118.4 0.00 0.0418635 49.5
2021-04-18 09:40:00 34.8 82.3 29.9 27.1 34.8 10.1 11.2 8.4 108.8 114.5 0.00 0.0573601 49.6
2021-04-18 09:45:00 35.0 86.2 31.3 29.4 35.0 6.5 9.7 7.7 9.6 98.2 0.00 0.0688041 49.6
2021-04-18 09:50:00 35.0 81.8 30.0 29.4 35.0 6.5 8.8 7.5 123.5 56.7 0.00 0.0610881 49.6
2021-04-18 09:55:00 35.2 84.9 31.1 28.5 35.2 8.3 9.6 7.5 116.0 103.5 0.00 0.0527939 49.6
2021-04-18 10:00:00 35.5 83.2 30.9 28.6 35.5 8.8 9.7 7.2 52.3 63.1 0.00 0.0598268 49.6
2021-04-18 10:05:00 35.6 84.2 31.3 30.5 35.6 6.0 8.8 6.7 2.9 57.4 0.00 0.0552438 49.7
2021-04-18 10:10:00 35.6 83.6 31.1 30.5 35.6 6.0 9.0 6.5 0.4 46.8 0.00 0.0487237 49.7
2021-04-18 10:15:00 35.6 81.8 30.6 30.8 35.6 5.6 9.6 6.6 76.1 39.6 0.00 0.0411364 49.7
2021-04-18 10:20:00 36.1 81.1 30.9 30.2 36.1 7.4 9.6 6.2 101.3 64.8 0.00 0.0415258 49.7
2021-04-18 10:25:00 35.9 85.5 32.0 31.9 35.9 4.7 7.8 5.5 106.4 90.4 0.00 0.0322368 49.8
2021-04-18 10:30:00 36.5 83.3 31.9 32.2 36.5 5.1 6.2 4.0 0.9 80.3 0.00 0.0372919 49.8
2021-04-18 10:35:00 36.5 79.9 30.8 31.5 36.5 6.0 8.5 6.3 58.7 75.4 0.00 0.0457161 49.8
2021-04-18 10:40:00 36.3 76.4 29.6 31.1 36.3 6.3 8.7 5.6 78.4 57.1 0.00 0.0406024 49.9
2021-04-18 10:45:00 36.5 82.2 31.6 32.2 36.5 5.1 8.3 5.9 0.0 65.4 0.00 0.0359299 49.9
2021-04-18 10:50:00 36.5 80.6 31.1 31.9 36.5 5.5 8.3 5.9 8.3 54.4 0.00 0.0408628 49.9
2021-04-18 10:55:00 36.6 79.2 30.8 32.7 36.6 4.7 8.1 5.5 124.2 89.5 0.00 0.0376527 50.0
2021-04-18 11:00:00 36.8 78.8 30.9 31.5 36.8 6.7 6.9 4.9 147.5 79.6 0.00 0.0313585 50.0
2021-04-18 11:05:00 36.6 76.4 29.9 31.8 36.6 5.8 9.2 7.3 125.9 101.2 0.00 0.0329372 50.0
2021-04-18 11:10:00 36.6 78.4 30.5 33.0 36.6 4.4 7.1 4.7 0.7 64.6 0.00 0.0353018 50.1
2021-04-18 11:15:00 36.7 78.0 30.5 32.8 36.7 4.7 6.7 5.2 0.9 69.5 0.00 0.0303285 50.1
2021-04-18 11:20:00 36.9 76.8 30.3 36.9 36.9 2.6 8.0 4.6 70.8 62.4 0.00 0.0277831 50.1
2021-04-18 11:25:00 36.9 74.2 29.4 33.2 36.9 4.6 6.3 5.0 141.4 101.5 0.00 0.0266049 50.2
2021-04-18 11:30:00 36.9 76.8 30.3 32.4 36.9 5.5 6.3 5.1 87.3 97.3 0.00 0.0278225 50.2
2021-04-18 11:35:00 37.0 74.6 29.7 33.0 37.0 4.9 7.2 5.6 83.2 64.7 0.00 0.0274492 50.2
2021-04-18 11:40:00 36.9 75.9 30.1 36.9 36.9 3.0 6.9 4.9 73.7 76.1 0.00 0.0276933 50.3
2021-04-18 11:45:00 37.2 73.6 29.6 34.3 37.2 3.8 6.2 4.3 67.9 80.2 0.00 0.0334060 50.3
2021-04-18 11:50:00 37.9 72.4 29.8 34.2 37.9 4.7 5.1 3.7 0.8 70.0 0.00 0.0457605 50.3
2021-04-18 11:55:00 38.4 73.1 30.5 34.9 38.4 4.6 6.2 4.7 129.3 107.1 0.00 0.0610173 50.4
2021-04-18 12:00:00 38.7 71.9 30.4 34.3 38.7 5.8 8.0 6.3 110.0 95.3 0.00 0.0689426 50.4
2021-04-18 12:05:00 38.7 71.2 30.2 33.5 38.7 7.1 9.6 6.8 130.4 101.6 0.00 0.0585872 50.5
2021-04-18 12:10:00 38.9 73.2 31.1 34.4 38.9 6.0 8.5 6.5 144.7 118.2 0.00 0.0766995 50.5
2021-04-18 12:15:00 38.7 68.1 29.0 38.7 38.7 2.4 8.7 6.2 0.0 86.1 0.00 0.0695133 50.5
2021-04-18 12:20:00 38.9 69.2 29.7 36.0 38.9 4.0 7.8 4.5 10.9 84.0 0.00 0.0460807 50.5
2021-04-18 12:25:00 39.1 66.6 29.0 34.4 39.1 6.5 9.6 4.8 48.1 74.1 0.00 0.0545533 50.6
2021-04-18 12:30:00 39.6 65.8 29.1 33.4 39.6 9.4 9.4 6.3 108.3 104.9 0.00 0.0666688 50.6
2021-04-18 12:35:00 39.4 69.0 30.1 36.2 39.4 4.6 8.8 6.3 136.0 83.7 0.00 0.0687271 50.6
2021-04-18 12:40:00 39.5 66.9 29.4 35.9 39.5 4.9 8.3 5.8 1.4 86.9 0.00 0.0656059 50.6
2021-04-18 12:45:00 39.9 65.0 29.1 37.5 39.9 3.7 8.3 6.0 0.6 88.1 0.00 0.0663278 50.6
2021-04-18 12:50:00 39.9 67.8 30.1 34.8 39.9 7.2 11.0 7.6 106.6 112.8 0.00 0.0664641 50.7
2021-04-18 12:55:00 39.9 65.1 29.1 34.0 39.9 9.0 9.2 6.5 65.1 81.2 0.00 0.0801802 50.7
2021-04-18 13:00:00 40.2 66.6 29.9 34.8 40.2 8.0 10.3 7.0 128.5 78.0 0.00 0.0770063 50.8
2021-04-18 13:05:00 40.4 65.0 29.5 34.5 40.4 9.0 11.0 9.3 108.6 106.5 0.00 0.0749677 50.8
2021-04-18 13:10:00 40.8 62.9 29.2 34.9 40.8 9.6 10.8 6.7 140.3 79.1 0.00 0.0709580 50.9
2021-04-18 13:15:00 40.6 63.4 29.1 36.8 40.6 5.5 9.4 6.7 105.8 95.4 0.00 0.0729923 50.9
2021-04-18 13:20:00 41.1 63.8 29.8 38.9 41.1 3.7 10.6 7.7 157.2 105.1 0.00 0.0798470 50.9
2021-04-18 13:25:00 41.7 62.7 29.9 38.1 41.7 5.5 11.0 6.3 112.9 106.6 0.00 0.0821920 51.0
2021-04-18 13:30:00 41.5 59.9 28.5 35.0 41.5 11.0 11.0 5.4 31.9 110.5 0.00 0.0610910 51.0
2021-04-18 13:35:00 41.0 65.6 30.3 36.9 41.0 6.0 9.7 7.4 96.0 108.3 0.00 0.0670657 51.1
2021-04-18 13:40:00 41.5 60.8 28.9 36.6 41.5 7.4 10.6 5.9 9.7 78.0 0.00 0.0663670 51.2
2021-04-18 13:45:00 42.0 58.6 28.5 39.5 42.0 4.0 7.8 4.5 75.4 91.7 0.00 0.0627656 51.2
2021-04-18 13:50:00 41.5 62.5 29.6 37.5 41.5 6.0 8.3 6.0 145.5 98.4 0.00 0.0645804 51.3
2021-04-18 13:55:00 41.9 57.3 27.9 38.0 41.9 6.0 9.4 6.9 47.1 71.2 0.00 0.0688708 51.3
2021-04-18 14:00:00 41.8 61.5 29.5 35.8 41.8 9.9 9.9 5.3 120.5 46.3 0.00 0.0736955 51.4
2021-04-18 14:05:00 41.7 62.3 29.7 39.7 41.7 3.5 10.1 5.8 161.8 61.4 0.00 0.0719386 51.5
2021-04-18 14:10:00 42.1 59.5 29.0 42.1 42.1 3.0 6.7 4.3 101.0 84.7 0.00 0.0660033 51.5
2021-04-18 14:15:00 42.1 58.6 28.7 42.1 42.1 3.0 8.0 5.2 0.0 79.2 0.00 0.0663436 51.6
2021-04-18 14:20:00 42.4 58.5 28.9 42.4 42.4 2.8 6.3 3.1 139.7 129.8 0.00 0.0662399 51.6
2021-04-18 14:25:00 42.7 56.9 28.5 39.4 42.7 5.5 8.7 5.6 75.1 59.5 0.00 0.0641446 51.7
2021-04-18 14:30:00 42.3 57.8 28.5 42.3 42.3 2.6 7.1 4.4 0.5 33.6 0.00 0.0640305 51.8
2021-04-18 14:35:00 42.9 60.3 30.1 40.7 42.9 4.0 4.0 2.8 1.0 15.7 0.00 0.0662351 51.8
2021-04-18 14:40:00 43.6 57.3 29.5 40.9 43.6 4.7 6.3 4.5 1.6 37.8 0.00 0.0628613 51.9
2021-04-18 14:45:00 43.0 55.4 28.2 39.5 43.0 5.8 8.5 6.4 0.6 20.6 0.00 0.0509664 51.9
2021-04-18 14:50:00 42.9 56.5 28.5 40.4 42.9 4.4 7.6 4.7 80.5 65.7 0.00 0.0456627 52.0
2021-04-18 14:55:00 42.6 56.2 28.1 40.6 42.6 3.7 8.5 6.0 109.0 88.1 0.00 0.0473453 52.1
2021-04-18 15:00:00 42.9 54.9 27.8 40.6 42.9 4.0 5.3 3.7 101.1 68.5 0.00 0.0456726 52.2
2021-04-18 15:05:00 42.7 56.8 28.5 42.7 42.7 1.9 5.6 3.4 78.4 67.4 0.00 0.0452529 52.2
2021-04-18 15:10:00 42.8 54.7 27.6 40.7 42.8 3.8 5.1 3.5 0.8 13.8 0.00 0.0466050 52.3
2021-04-18 15:15:00 42.9 54.3 27.5 40.4 42.9 4.4 5.5 4.1 68.3 13.7 0.00 0.0520039 52.3
2021-04-18 15:20:00 43.0 53.7 27.4 41.1 43.0 3.7 5.3 3.8 60.2 39.1 0.00 0.0577847 52.4
2021-04-18 15:25:00 43.4 53.1 27.4 41.7 43.4 3.5 5.6 3.2 67.6 36.8 0.00 0.0559078 52.5
2021-04-18 15:30:00 43.5 52.7 27.4 41.2 43.5 4.2 6.2 4.2 0.5 2.4 0.00 0.0550184 52.5
2021-04-18 15:35:00 43.7 53.7 28.0 43.7 43.7 3.0 5.3 2.9 0.5 5.3 0.00 0.0570370 52.6
2021-04-18 15:40:00 44.2 52.8 28.0 42.5 44.2 3.5 6.9 4.4 0.6 6.3 0.00 0.0565666 52.6
2021-04-18 15:45:00 44.6 55.1 29.5 42.7 44.6 3.8 5.6 4.1 72.8 9.1 0.00 0.0564489 52.7
2021-04-18 15:50:00 43.8 55.5 28.9 42.5 43.8 3.1 6.3 4.3 55.9 25.6 0.00 0.0561339 52.8
2021-04-18 15:55:00 44.1 52.1 27.7 41.3 44.1 5.1 5.3 4.0 1.6 8.6 0.00 0.0539439 52.8
2021-04-18 16:00:00 43.8 51.8 27.2 43.8 43.8 2.4 5.1 3.1 179.3 9.7 0.00 0.0522518 52.9
2021-04-18 16:05:00 44.3 50.8 27.2 43.1 44.3 3.1 4.4 3.0 9.4 28.1 0.00 0.0525784 53.0
2021-04-18 16:10:00 44.4 54.2 28.9 41.5 44.4 5.1 5.1 2.9 29.2 9.8 0.00 0.0485249 53.0
2021-04-18 16:15:00 44.4 50.2 27.0 40.4 44.4 7.1 8.1 5.0 1.1 12.3 0.00 0.0435996 53.1
2021-04-18 16:20:00 43.9 54.6 28.6 41.9 43.9 3.8 6.7 5.1 0.5 1.8 0.00 0.0377744 53.1
2021-04-18 16:25:00 43.9 51.9 27.3 43.9 43.9 2.6 4.6 2.9 0.5 2.4 0.00 0.0350133 53.2
2021-04-18 16:30:00 44.6 51.8 27.9 41.6 44.6 5.3 5.3 4.0 3.8 7.0 0.00 0.0339357 53.2
2021-04-18 16:35:00 44.4 51.6 27.7 40.8 44.4 6.3 7.4 5.8 3.7 0.8 0.00 0.0324745 53.3
2021-04-18 16:40:00 44.1 52.3 27.8 40.4 44.1 6.5 7.4 6.2 2.9 1.7 0.00 0.0313554 53.3
2021-04-18 16:45:00 44.0 51.4 27.2 41.0 44.0 5.1 5.8 4.3 0.7 14.8 0.00 0.0301276 53.4
2021-04-18 16:50:00 43.8 52.6 27.6 40.8 43.8 5.3 6.7 5.0 63.3 18.1 0.00 0.0277918 53.5
2021-04-18 16:55:00 44.0 53.1 28.0 44.0 44.0 2.4 5.5 3.3 92.3 22.7 0.00 0.0274331 53.5
2021-04-18 17:00:00 44.2 51.2 27.3 41.2 44.2 5.3 6.5 3.9 0.6 4.2 0.00 0.0269728 53.5
2021-04-18 17:05:00 43.8 51.7 27.2 42.5 43.8 3.1 5.6 4.3 0.6 4.1 0.00 0.0258674 53.6
2021-04-18 17:10:00 44.0 52.7 27.8 41.9 44.0 4.0 6.3 4.3 0.6 5.8 0.00 0.0257672 53.6
2021-04-18 17:15:00 44.3 52.7 28.1 44.3 44.3 1.9 4.6 3.4 44.8 4.3 0.00 0.0255356 53.7
2021-04-18 17:20:00 44.5 50.7 27.4 41.0 44.5 6.2 6.2 3.9 0.5 3.7 0.00 0.0247901 53.7
2021-04-18 17:25:00 44.3 51.9 27.7 43.1 44.3 3.1 5.8 3.7 3.4 2.4 0.00 0.0242856 53.7
2021-04-18 17:30:00 44.2 51.9 27.6 42.6 44.2 3.5 5.1 4.0 0.6 3.8 0.00 0.0241878 53.8
2021-04-18 17:35:00 44.2 50.7 27.1 42.2 44.2 4.0 6.7 4.8 43.8 10.6 0.00 0.0228943 53.8
2021-04-18 17:40:00 44.2 51.7 27.5 41.3 44.2 5.1 5.1 3.4 0.2 7.7 0.00 0.0211894 53.8
2021-04-18 17:45:00 44.3 50.6 27.1 41.3 44.3 5.3 6.3 4.8 4.4 8.1 0.00 0.0204066 53.9
2021-04-18 17:50:00 44.3 51.4 27.5 41.8 44.3 4.6 5.5 3.6 0.5 7.4 0.00 0.0207771 53.9
2021-04-18 17:55:00 44.2 51.4 27.4 42.3 44.2 3.8 4.6 3.3 0.8 3.6 0.00 0.0213473 53.9
2021-04-18 18:00:00 44.5 49.5 26.8 43.0 44.5 3.5 5.8 3.9 0.5 1.1 0.00 0.0200810 53.9
2021-04-18 18:05:00 44.5 50.6 27.3 44.5 44.5 2.8 3.8 3.1 1.2 3.8 0.00 0.0191415 53.9
2021-04-18 18:10:00 44.5 50.2 27.1 42.7 44.5 3.8 5.5 3.4 0.7 8.7 0.00 0.0188539 53.9
2021-04-18 18:15:00 44.4 49.6 26.7 44.4 44.4 1.9 4.6 3.6 1.4 5.4 0.00 0.0180328 54.0
2021-04-18 18:20:00 44.5 50.2 27.1 44.5 44.5 1.5 4.0 1.5 6.9 10.9 0.00 0.0171358 54.0
2021-04-18 18:25:00 44.4 50.2 27.0 44.4 44.4 1.7 2.8 2.0 7.2 11.3 0.00 0.0154585 54.0
2021-04-18 18:30:00 44.5 50.0 27.0 44.5 44.5 2.8 2.8 1.0 249.6 19.1 0.00 0.0136366 54.0
2021-04-18 18:35:00 44.4 50.0 26.9 44.4 44.4 2.2 4.2 2.8 2.3 4.3 0.00 0.0107756 54.0
2021-04-18 18:40:00 44.5 49.5 26.8 44.5 44.5 0.0 3.5 1.5 1.6 346.7 0.00 0.0151710 54.0
2021-04-18 18:45:00 45.6 48.0 27.1 45.6 45.6 1.7 2.1 0.6 1.0 66.8 0.00 0.0231554 54.0
2021-04-18 18:50:00 45.8 47.4 26.9 45.8 45.8 1.7 2.6 1.6 0.7 19.2 0.00 0.0192608 54.0
2021-04-18 18:55:00 45.7 48.2 27.2 45.7 45.7 1.9 2.4 1.7 7.0 4.3 0.00 0.0162057 54.0
2021-04-18 19:00:00 45.3 48.5 27.0 45.3 45.3 2.8 3.0 1.9 4.0 7.3 0.00 0.0134408 54.0
2021-04-18 19:05:00 45.1 49.3 27.2 45.1 45.1 0.0 3.3 1.3 0.6 15.9 0.00 0.0107985 54.0
2021-04-18 19:10:00 44.9 49.2 27.0 44.9 44.9 2.2 2.8 1.6 55.8 75.4 0.00 0.0082711 54.0
2021-04-18 19:15:00 44.6 49.7 27.0 44.6 44.6 2.1 2.8 2.2 77.3 52.9 0.00 0.0059107 54.0
2021-04-18 19:20:00 44.0 50.9 27.0 44.0 44.0 1.5 2.6 1.9 95.8 47.1 0.00 0.0036888 54.0
2021-04-18 19:25:00 43.7 51.8 27.1 43.7 43.7 1.5 2.2 1.8 103.2 43.7 0.00 0.0016586 54.0
2021-04-18 19:30:00 43.3 52.4 27.1 43.3 43.3 1.7 2.2 1.7 0.9 40.6 0.00 0.0001357 53.9
2021-04-18 19:35:00 42.7 53.8 27.1 42.7 42.7 1.7 1.9 1.6 64.4 23.2 0.00 0.0000000 53.9
2021-04-18 19:40:00 42.0 56.0 27.4 42.0 42.0 1.3 1.7 1.3 53.5 8.1 0.00 0.0000000 53.9
2021-04-18 19:45:00 41.5 56.9 27.3 41.5 41.5 1.3 1.5 1.3 59.8 20.3 0.00 0.0000000 53.9
2021-04-18 19:50:00 41.2 57.4 27.3 41.2 41.2 0.0 1.3 0.4 61.0 27.3 0.00 0.0000000 53.8
2021-04-18 19:55:00 40.7 58.3 27.2 40.7 40.7 0.0 0.0 0.0 61.7 0.0 0.00 0.0000000 53.8
2021-04-18 20:00:00 40.4 58.7 27.1 40.4 40.4 0.0 0.0 0.0 151.5 0.0 0.00 0.0000000 53.7
2021-04-18 20:05:00 40.2 59.3 27.1 40.2 40.2 0.0 0.0 0.0 71.0 0.0 0.00 0.0000000 53.7
2021-04-18 20:10:00 39.9 59.8 27.1 39.9 39.9 0.0 0.0 0.0 189.6 0.0 0.00 0.0000000 53.7
2021-04-18 20:15:00 40.0 59.7 27.1 40.0 40.0 0.0 0.0 0.0 50.6 0.0 0.00 0.0000000 53.6
2021-04-18 20:20:00 39.7 60.7 27.2 39.7 39.7 3.0 3.0 1.0 220.3 194.5 0.00 0.0000000 53.6
2021-04-18 20:25:00 38.3 63.9 27.1 35.4 38.3 3.8 3.8 3.2 117.1 166.2 0.00 0.0000000 53.5

Data is courtesy of the NM Climate Center. DO NOT USE IN LEGAL PROCEEDINGS.